Portada
METAR-TAF:

METAR-TAF

Aeroports :

NWS Office

Pohnpei, Micronèsia

latitud: 06-58N, longitud: 158-13E, altitud: 39 m

Observació

L'informe es va fer fa 1 hora i 27 minuts, a les 06:54 UTC
Vent 3 kt del Sud/Sud-Est
Temperatura 27°C
Humitat 89%
Pressió 1010 hPa
Visibilitat: 24.1 km
Escasses núvols a una alçada de 1800 ft, Cumulus congestus.
Cel ennuvolat a una alçada de 30000 ft

METAR: PTTP 190654Z 16003KT 15SM FEW018TCU BKN300 27/25 A2982 RMK SHRAE05 TSE1657 TS SE-S TCU NE SLP098 T02700245

Hora: 19:21 (08:21 UTC)


TAF: manca

Observacions i pronòstics meteorològics de més de 4000 aeroports (METAR i TAF).

Les estacions disponibles són els punts grocs i vermells al mapa.

Posi el ratolí al punt desitjat per veure el nom de l'estació.

Feu clic per veure les observacions i els pronòstics meteorològics.

Per canviar el mapa: feu clic els botons verds amb una creu de color negre per apropar; al botó verd amb un guió per allunyar la imatge; o en les fletxes verdes per a mapes adjacents.


METAR-TAF: